GLO1347 SBVT-SBSP
Flight info
| Callsign | GLO1347 |
|---|---|
| Flight time | N/A |
| Altitude | 36000 |
| Route | MABSI UZ44 ADA UZ45 IBDAL |
| Aircraft | B738/M-SDE2E3FGHIRWXY/LB1 |
Departure
| Time | 2026-05-01 14:20 |
|---|---|
| Airport | Eurico de Aguiar Salles International Airport (SBVT) |
Arrival
| Time | N/A |
|---|---|
| Airport | Congonhas–Deputado Freitas Nobre Airport (SBSP) |
| Time | Latitude | Longitude | Altitude | Speed | Heading |
|---|---|---|---|---|---|
| 2026-05-01 13:57 | -20.26534 | -40.28168 | 34 ft | 0 kts | 261° |
| 2026-05-01 14:09 | -20.26530 | -40.28142 | 33 ft | 4 kts | 262° |
| 2026-05-01 14:09 | -20.26529 | -40.28116 | 34 ft | 4 kts | 294° |
| 2026-05-01 14:09 | -20.26545 | -40.28097 | 34 ft | 4 kts | 342° |
| 2026-05-01 14:10 | -20.26559 | -40.28093 | 34 ft | 1 kts | 352° |
| 2026-05-01 14:10 | -20.26560 | -40.28093 | 34 ft | 0 kts | 352° |
| 2026-05-01 14:12 | -20.26554 | -40.28094 | 34 ft | 2 kts | 352° |
| 2026-05-01 14:12 | -20.26524 | -40.28098 | 31 ft | 6 kts | 352° |
| 2026-05-01 14:12 | -20.26466 | -40.28107 | 34 ft | 10 kts | 352° |
| 2026-05-01 14:13 | -20.26384 | -40.28117 | 34 ft | 13 kts | 356° |
| 2026-05-01 14:13 | -20.26327 | -40.28094 | 33 ft | 15 kts | 47° |
| 2026-05-01 14:13 | -20.26198 | -40.28084 | 34 ft | 14 kts | 353° |
| 2026-05-01 14:13 | -20.26106 | -40.28097 | 34 ft | 11 kts | 351° |
| 2026-05-01 14:14 | -20.26032 | -40.28108 | 34 ft | 10 kts | 353° |
| 2026-05-01 14:14 | -20.25961 | -40.28118 | 35 ft | 10 kts | 353° |
| 2026-05-01 14:14 | -20.25892 | -40.28127 | 34 ft | 10 kts | 353° |
| 2026-05-01 14:14 | -20.25824 | -40.28137 | 34 ft | 10 kts | 353° |
| 2026-05-01 14:15 | -20.25759 | -40.28147 | 32 ft | 9 kts | 350° |
| 2026-05-01 14:15 | -20.25695 | -40.28158 | 34 ft | 9 kts | 352° |
| 2026-05-01 14:15 | -20.25633 | -40.28167 | 35 ft | 9 kts | 352° |
| 2026-05-01 14:15 | -20.25573 | -40.28177 | 32 ft | 9 kts | 351° |
| 2026-05-01 14:16 | -20.25505 | -40.28188 | 31 ft | 11 kts | 352° |
| 2026-05-01 14:16 | -20.25414 | -40.28200 | 28 ft | 15 kts | 357° |
| 2026-05-01 14:16 | -20.25336 | -40.28176 | 28 ft | 7 kts | 31° |
| 2026-05-01 14:16 | -20.25310 | -40.28159 | 28 ft | 4 kts | 33° |
| 2026-05-01 14:17 | -20.25295 | -40.28149 | 29 ft | 1 kts | 30° |
| 2026-05-01 14:17 | -20.25288 | -40.28144 | 29 ft | 1 kts | 32° |
| 2026-05-01 14:17 | -20.25278 | -40.28137 | 29 ft | 3 kts | 33° |
| 2026-05-01 14:17 | -20.25241 | -40.28112 | 29 ft | 9 kts | 33° |
| 2026-05-01 14:18 | -20.25166 | -40.28068 | 28 ft | 15 kts | 17° |
| 2026-05-01 14:18 | -20.25056 | -40.28074 | 27 ft | 16 kts | 352° |
| 2026-05-01 14:18 | -20.24948 | -40.28090 | 27 ft | 15 kts | 352° |
| 2026-05-01 14:18 | -20.24878 | -40.28100 | 27 ft | 15 kts | 354° |
| 2026-05-01 14:19 | -20.24783 | -40.28109 | 25 ft | 7 kts | 240° |
| 2026-05-01 14:19 | -20.24823 | -40.28109 | 23 ft | 0 kts | 172° |
| 2026-05-01 14:19 | -20.24829 | -40.28108 | 27 ft | 10 kts | 172° |
| 2026-05-01 14:20 | -20.25181 | -40.28055 | 28 ft | 91 kts | 172° |
| 2026-05-01 14:20 | -20.27280 | -40.27790 | 512 ft | 184 kts | 175° |
| 2026-05-01 14:20 | -20.28548 | -40.27657 | 1581 ft | 180 kts | 170° |
| 2026-05-01 14:21 | -20.29737 | -40.27475 | 2612 ft | 178 kts | 173° |
| 2026-05-01 14:21 | -20.31057 | -40.27386 | 3212 ft | 200 kts | 172° |
| 2026-05-01 14:21 | -20.32450 | -40.27133 | 3898 ft | 208 kts | 168° |
| 2026-05-01 14:22 | -20.35469 | -40.26550 | 4896 ft | 238 kts | 172° |
| 2026-05-01 14:22 | -20.37179 | -40.26811 | 5257 ft | 265 kts | 202° |
| 2026-05-01 14:22 | -20.38762 | -40.28002 | 5658 ft | 291 kts | 226° |
| 2026-05-01 14:22 | -20.40023 | -40.29680 | 6775 ft | 282 kts | 231° |
| 2026-05-01 14:23 | -20.41407 | -40.31131 | 7776 ft | 283 kts | 209° |
| 2026-05-01 14:23 | -20.43228 | -40.32005 | 8457 ft | 291 kts | 199° |
| 2026-05-01 14:23 | -20.45140 | -40.32796 | 9253 ft | 297 kts | 199° |
| 2026-05-01 14:23 | -20.47068 | -40.33643 | 10034 ft | 304 kts | 201° |
| 2026-05-01 14:24 | -20.49005 | -40.34576 | 10891 ft | 306 kts | 203° |
| 2026-05-01 14:24 | -20.50926 | -40.35564 | 11756 ft | 309 kts | 204° |
| 2026-05-01 14:24 | -20.52928 | -40.36584 | 12016 ft | 332 kts | 204° |
| 2026-05-01 14:24 | -20.55055 | -40.37678 | 12241 ft | 353 kts | 204° |
| 2026-05-01 14:25 | -20.57297 | -40.38856 | 12765 ft | 362 kts | 205° |
| 2026-05-01 14:25 | -20.59563 | -40.40066 | 13484 ft | 364 kts | 206° |
| 2026-05-01 14:25 | -20.61831 | -40.41291 | 14220 ft | 366 kts | 206° |
| 2026-05-01 14:25 | -20.64112 | -40.42531 | 14925 ft | 369 kts | 206° |
| 2026-05-01 14:26 | -20.66381 | -40.43768 | 15589 ft | 371 kts | 206° |
| 2026-05-01 14:26 | -20.71019 | -40.46301 | 16855 ft | 377 kts | 207° |
| 2026-05-01 14:26 | -20.73362 | -40.47581 | 17481 ft | 379 kts | 207° |
| 2026-05-01 14:27 | -20.75720 | -40.48871 | 18076 ft | 381 kts | 207° |
| 2026-05-01 14:27 | -20.78089 | -40.50167 | 18642 ft | 384 kts | 207° |
| 2026-05-01 14:27 | -20.80478 | -40.51475 | 19171 ft | 388 kts | 208° |
| 2026-05-01 14:28 | -20.85333 | -40.54131 | 20219 ft | 393 kts | 208° |
| 2026-05-01 14:28 | -20.87778 | -40.55471 | 20746 ft | 396 kts | 208° |
| 2026-05-01 14:28 | -20.89401 | -40.56360 | 21057 ft | 398 kts | 208° |
| 2026-05-01 14:28 | -20.91795 | -40.57868 | 21500 ft | 400 kts | 216° |
| 2026-05-01 14:29 | -20.94749 | -40.60250 | 22120 ft | 403 kts | 219° |
| 2026-05-01 14:29 | -20.96950 | -40.62140 | 22566 ft | 406 kts | 219° |
| 2026-05-01 14:30 | -21.02904 | -40.67160 | 23717 ft | 412 kts | 218° |
| 2026-05-01 14:30 | -21.05186 | -40.69036 | 24106 ft | 414 kts | 218° |
| 2026-05-01 14:30 | -21.07486 | -40.70918 | 24462 ft | 417 kts | 218° |
| 2026-05-01 14:31 | -21.12130 | -40.74714 | 25189 ft | 422 kts | 218° |
| 2026-05-01 14:31 | -21.14471 | -40.76630 | 25581 ft | 423 kts | 218° |
| 2026-05-01 14:31 | -21.16815 | -40.78552 | 25961 ft | 425 kts | 218° |
| 2026-05-01 14:31 | -21.19170 | -40.80484 | 26299 ft | 427 kts | 218° |
| 2026-05-01 14:32 | -21.21538 | -40.82429 | 26643 ft | 429 kts | 218° |
| 2026-05-01 14:32 | -21.23924 | -40.84390 | 26993 ft | 431 kts | 218° |
| 2026-05-01 14:32 | -21.26306 | -40.86348 | 27315 ft | 433 kts | 218° |
| 2026-05-01 14:32 | -21.28674 | -40.88297 | 27650 ft | 435 kts | 218° |
| 2026-05-01 14:33 | -21.31074 | -40.90272 | 27966 ft | 436 kts | 218° |
| 2026-05-01 14:33 | -21.33487 | -40.92257 | 28256 ft | 438 kts | 218° |
| 2026-05-01 14:33 | -21.35916 | -40.94257 | 28552 ft | 441 kts | 218° |
| 2026-05-01 14:33 | -21.38356 | -40.96267 | 28854 ft | 443 kts | 218° |
| 2026-05-01 14:34 | -21.40803 | -40.98283 | 29153 ft | 444 kts | 219° |
| 2026-05-01 14:34 | -21.43260 | -41.00310 | 29452 ft | 445 kts | 219° |
| 2026-05-01 14:34 | -21.45718 | -41.02338 | 29779 ft | 446 kts | 219° |
| 2026-05-01 14:34 | -21.48180 | -41.04371 | 30162 ft | 445 kts | 219° |
| 2026-05-01 14:35 | -21.50624 | -41.06390 | 30580 ft | 443 kts | 219° |
| 2026-05-01 14:35 | -21.53066 | -41.08407 | 30982 ft | 442 kts | 219° |
| 2026-05-01 14:35 | -21.55496 | -41.10416 | 31376 ft | 440 kts | 219° |
| 2026-05-01 14:35 | -21.57885 | -41.12392 | 31791 ft | 438 kts | 219° |
| 2026-05-01 14:36 | -21.60301 | -41.14391 | 32201 ft | 436 kts | 219° |
| 2026-05-01 14:36 | -21.62708 | -41.16384 | 32567 ft | 436 kts | 219° |
| 2026-05-01 14:36 | -21.65106 | -41.18371 | 32926 ft | 435 kts | 219° |
| 2026-05-01 14:36 | -21.67500 | -41.20355 | 33328 ft | 433 kts | 219° |
| 2026-05-01 14:37 | -21.69884 | -41.22330 | 33700 ft | 432 kts | 219° |
| 2026-05-01 14:37 | -21.72260 | -41.24301 | 34052 ft | 430 kts | 219° |
| 2026-05-01 14:37 | -21.74628 | -41.26271 | 34396 ft | 429 kts | 219° |
| 2026-05-01 14:37 | -21.76986 | -41.28250 | 34716 ft | 428 kts | 219° |
| 2026-05-01 14:38 | -21.79294 | -41.30193 | 35101 ft | 426 kts | 219° |
| 2026-05-01 14:38 | -21.81622 | -41.32157 | 35442 ft | 424 kts | 220° |
| 2026-05-01 14:38 | -21.83941 | -41.34114 | 35763 ft | 423 kts | 220° |
| 2026-05-01 14:38 | -21.86262 | -41.36073 | 36106 ft | 421 kts | 220° |
| 2026-05-01 14:39 | -21.88580 | -41.38029 | 36133 ft | 426 kts | 220° |
| 2026-05-01 14:39 | -21.93259 | -41.41979 | 36149 ft | 426 kts | 220° |
| 2026-05-01 14:40 | -21.97889 | -41.45886 | 36147 ft | 419 kts | 220° |
| 2026-05-01 14:40 | -22.02477 | -41.49762 | 36167 ft | 418 kts | 220° |
| 2026-05-01 14:41 | -22.07056 | -41.53638 | 36161 ft | 418 kts | 220° |
| 2026-05-01 14:41 | -22.11599 | -41.57496 | 36155 ft | 418 kts | 220° |
| 2026-05-01 14:42 | -22.16173 | -41.61381 | 36159 ft | 418 kts | 220° |
| 2026-05-01 14:42 | -22.20751 | -41.65273 | 36157 ft | 419 kts | 220° |
| 2026-05-01 14:43 | -22.25325 | -41.69166 | 36157 ft | 419 kts | 220° |
| 2026-05-01 14:43 | -22.29900 | -41.73062 | 36156 ft | 419 kts | 220° |
| 2026-05-01 14:44 | -22.34489 | -41.76951 | 36157 ft | 420 kts | 218° |
| 2026-05-01 14:44 | -22.41866 | -41.82049 | 36155 ft | 422 kts | 214° |
| 2026-05-01 14:45 | -22.49319 | -41.87100 | 36155 ft | 421 kts | 215° |
| 2026-05-01 14:46 | -22.54271 | -41.90492 | 36159 ft | 421 kts | 215° |
| 2026-05-01 14:46 | -22.61672 | -41.95571 | 36156 ft | 420 kts | 215° |
| 2026-05-01 14:47 | -22.66604 | -41.98957 | 36156 ft | 419 kts | 215° |
| 2026-05-01 14:48 | -22.73902 | -42.04173 | 36156 ft | 419 kts | 217° |
| 2026-05-01 14:48 | -22.80700 | -42.09925 | 36161 ft | 413 kts | 232° |
| 2026-05-01 14:49 | -22.83794 | -42.15124 | 36162 ft | 410 kts | 245° |
| 2026-05-01 14:49 | -22.86167 | -42.20745 | 36157 ft | 409 kts | 246° |
| 2026-05-01 14:50 | -22.90882 | -42.31980 | 36161 ft | 409 kts | 246° |
| 2026-05-01 14:51 | -22.94437 | -42.40360 | 36155 ft | 409 kts | 246° |
| 2026-05-01 14:52 | -22.97996 | -42.48756 | 36159 ft | 408 kts | 246° |
| 2026-05-01 14:53 | -23.01556 | -42.57166 | 36157 ft | 408 kts | 246° |
| 2026-05-01 14:53 | -23.03921 | -42.62762 | 36158 ft | 408 kts | 246° |
| 2026-05-01 14:54 | -23.06284 | -42.68360 | 36155 ft | 408 kts | 246° |
| 2026-05-01 14:54 | -23.08642 | -42.73956 | 36158 ft | 407 kts | 246° |
| 2026-05-01 14:55 | -23.10994 | -42.79544 | 36157 ft | 407 kts | 246° |
| 2026-05-01 14:55 | -23.13349 | -42.85144 | 36157 ft | 407 kts | 246° |
| 2026-05-01 14:56 | -23.15685 | -42.90708 | 36157 ft | 407 kts | 246° |
| 2026-05-01 14:56 | -23.18035 | -42.96307 | 36154 ft | 407 kts | 246° |
| 2026-05-01 14:57 | -23.20380 | -43.01905 | 36157 ft | 407 kts | 246° |
| 2026-05-01 14:57 | -23.23895 | -43.10307 | 36159 ft | 407 kts | 246° |
| 2026-05-01 14:58 | -23.26235 | -43.15908 | 36156 ft | 407 kts | 246° |
| 2026-05-01 14:58 | -23.28564 | -43.21493 | 36157 ft | 406 kts | 246° |
| 2026-05-01 14:59 | -23.30865 | -43.27112 | 36154 ft | 406 kts | 250° |
| 2026-05-01 14:59 | -23.32356 | -43.33015 | 36156 ft | 405 kts | 256° |
| 2026-05-01 15:00 | -23.34398 | -43.41925 | 36160 ft | 405 kts | 256° |
| 2026-05-01 15:01 | -23.35782 | -43.47869 | 36167 ft | 404 kts | 256° |
| 2026-05-01 15:01 | -23.37159 | -43.53768 | 36167 ft | 404 kts | 256° |
| 2026-05-01 15:02 | -23.38553 | -43.59732 | 36165 ft | 404 kts | 256° |
| 2026-05-01 15:02 | -23.39936 | -43.65660 | 36176 ft | 404 kts | 256° |
| 2026-05-01 15:03 | -23.41306 | -43.71546 | 36179 ft | 403 kts | 256° |
| 2026-05-01 15:03 | -23.42682 | -43.77468 | 36180 ft | 403 kts | 256° |
| 2026-05-01 15:04 | -23.44052 | -43.83377 | 36191 ft | 402 kts | 256° |
| 2026-05-01 15:04 | -23.45422 | -43.89298 | 36195 ft | 402 kts | 256° |
| 2026-05-01 15:05 | -23.46779 | -43.95173 | 36190 ft | 402 kts | 256° |
| 2026-05-01 15:05 | -23.48138 | -44.01075 | 36199 ft | 401 kts | 256° |
| 2026-05-01 15:06 | -23.49495 | -44.06971 | 36189 ft | 402 kts | 256° |
| 2026-05-01 15:06 | -23.50852 | -44.12870 | 36196 ft | 401 kts | 256° |
| 2026-05-01 15:07 | -23.52207 | -44.18772 | 36195 ft | 401 kts | 256° |
| 2026-05-01 15:07 | -23.53561 | -44.24675 | 36191 ft | 401 kts | 256° |
| 2026-05-01 15:08 | -23.54913 | -44.30573 | 36191 ft | 401 kts | 256° |
| 2026-05-01 15:08 | -23.56255 | -44.36439 | 36202 ft | 401 kts | 256° |
| 2026-05-01 15:09 | -23.57606 | -44.42367 | 36203 ft | 402 kts | 256° |
| 2026-05-01 15:09 | -23.58953 | -44.48278 | 36204 ft | 402 kts | 256° |
| 2026-05-01 15:10 | -23.60301 | -44.54204 | 36206 ft | 402 kts | 256° |
| 2026-05-01 15:10 | -23.62311 | -44.63068 | 36204 ft | 403 kts | 256° |
| 2026-05-01 15:11 | -23.64326 | -44.71970 | 36202 ft | 403 kts | 256° |
| 2026-05-01 15:12 | -23.65668 | -44.77920 | 36196 ft | 404 kts | 256° |
| 2026-05-01 15:12 | -23.67670 | -44.86817 | 36196 ft | 404 kts | 256° |
| 2026-05-01 15:13 | -23.69695 | -44.95842 | 34630 ft | 408 kts | 256° |
| 2026-05-01 15:14 | -23.71047 | -45.01872 | 33345 ft | 410 kts | 257° |
| 2026-05-01 15:14 | -23.71729 | -45.04895 | 32681 ft | 411 kts | 257° |
| 2026-05-01 15:14 | -23.72853 | -45.09945 | 31537 ft | 413 kts | 257° |
| 2026-05-01 15:15 | -23.74203 | -45.16018 | 30440 ft | 409 kts | 257° |
| 2026-05-01 15:15 | -23.75536 | -45.22005 | 29421 ft | 402 kts | 257° |
| 2026-05-01 15:16 | -23.76837 | -45.27853 | 28411 ft | 395 kts | 257° |
| 2026-05-01 15:16 | -23.78123 | -45.33630 | 27421 ft | 389 kts | 257° |
| 2026-05-01 15:17 | -23.79393 | -45.39345 | 26415 ft | 384 kts | 257° |
| 2026-05-01 15:18 | -23.80240 | -45.47955 | 25263 ft | 385 kts | 268° |
| 2026-05-01 15:18 | -23.80343 | -45.50904 | 24880 ft | 391 kts | 268° |
| 2026-05-01 15:19 | -23.80712 | -45.59744 | 23718 ft | 383 kts | 268° |
| 2026-05-01 15:19 | -23.80993 | -45.65502 | 22973 ft | 376 kts | 267° |
| 2026-05-01 15:19 | -23.81137 | -45.68349 | 22608 ft | 374 kts | 267° |
| 2026-05-01 15:20 | -23.81420 | -45.73953 | 21882 ft | 371 kts | 267° |
| 2026-05-01 15:20 | -23.81561 | -45.76764 | 21517 ft | 370 kts | 267° |
| 2026-05-01 15:20 | -23.81700 | -45.79562 | 21149 ft | 369 kts | 267° |
| 2026-05-01 15:21 | -23.81841 | -45.82375 | 20791 ft | 368 kts | 267° |
| 2026-05-01 15:21 | -23.81979 | -45.85159 | 20430 ft | 368 kts | 267° |
| 2026-05-01 15:21 | -23.82118 | -45.87958 | 20068 ft | 367 kts | 267° |
| 2026-05-01 15:21 | -23.82255 | -45.90734 | 19710 ft | 366 kts | 267° |
| 2026-05-01 15:22 | -23.82526 | -45.96274 | 18981 ft | 364 kts | 267° |
| 2026-05-01 15:22 | -23.82660 | -45.99009 | 18624 ft | 362 kts | 267° |
| 2026-05-01 15:22 | -23.82793 | -46.01748 | 18264 ft | 360 kts | 267° |
| 2026-05-01 15:23 | -23.82925 | -46.04477 | 17909 ft | 358 kts | 267° |
| 2026-05-01 15:23 | -23.83055 | -46.07177 | 17554 ft | 356 kts | 267° |
| 2026-05-01 15:23 | -23.83184 | -46.09871 | 17205 ft | 354 kts | 267° |
| 2026-05-01 15:23 | -23.83313 | -46.12551 | 16855 ft | 352 kts | 267° |
| 2026-05-01 15:24 | -23.83440 | -46.15222 | 16505 ft | 351 kts | 267° |
| 2026-05-01 15:24 | -23.83567 | -46.17878 | 16161 ft | 350 kts | 267° |
| 2026-05-01 15:24 | -23.83692 | -46.20532 | 15810 ft | 349 kts | 267° |
| 2026-05-01 15:24 | -23.83818 | -46.23170 | 15470 ft | 347 kts | 267° |
| 2026-05-01 15:25 | -23.83944 | -46.25801 | 15127 ft | 346 kts | 267° |
| 2026-05-01 15:25 | -23.84067 | -46.28422 | 14788 ft | 346 kts | 267° |
| 2026-05-01 15:25 | -23.84190 | -46.31011 | 14456 ft | 345 kts | 267° |
| 2026-05-01 15:25 | -23.84313 | -46.33625 | 14114 ft | 344 kts | 267° |
| 2026-05-01 15:26 | -23.84435 | -46.36234 | 13782 ft | 344 kts | 267° |
| 2026-05-01 15:26 | -23.84559 | -46.38878 | 13434 ft | 343 kts | 267° |
| 2026-05-01 15:26 | -23.84680 | -46.41475 | 13103 ft | 343 kts | 267° |
| 2026-05-01 15:26 | -23.84800 | -46.44083 | 12751 ft | 343 kts | 267° |
| 2026-05-01 15:27 | -23.84923 | -46.46676 | 12428 ft | 342 kts | 267° |
| 2026-05-01 15:27 | -23.85041 | -46.49267 | 12096 ft | 341 kts | 267° |
| 2026-05-01 15:27 | -23.85157 | -46.51816 | 11763 ft | 340 kts | 267° |
| 2026-05-01 15:28 | -23.85391 | -46.56949 | 11117 ft | 333 kts | 268° |
| 2026-05-01 15:28 | -23.85484 | -46.59461 | 10777 ft | 327 kts | 272° |
| 2026-05-01 15:28 | -23.84983 | -46.61837 | 10452 ft | 321 kts | 297° |
| 2026-05-01 15:29 | -23.82013 | -46.65192 | 10138 ft | 298 kts | 328° |
| 2026-05-01 15:29 | -23.80240 | -46.66407 | 10120 ft | 285 kts | 328° |
| 2026-05-01 15:29 | -23.76963 | -46.68641 | 9619 ft | 272 kts | 328° |
| 2026-05-01 15:30 | -23.73758 | -46.70854 | 9235 ft | 278 kts | 328° |
| 2026-05-01 15:31 | -23.67129 | -46.75450 | 8102 ft | 284 kts | 328° |
| 2026-05-01 15:31 | -23.63867 | -46.77711 | 7448 ft | 269 kts | 329° |
| 2026-05-01 15:32 | -23.60790 | -46.79840 | 6863 ft | 254 kts | 329° |
| 2026-05-01 15:32 | -23.57707 | -46.81425 | 6324 ft | 244 kts | 1° |
| 2026-05-01 15:33 | -23.53875 | -46.78413 | 5610 ft | 230 kts | 57° |
| 2026-05-01 15:34 | -23.51990 | -46.74153 | 4869 ft | 196 kts | 102° |